Airfield :







YOU CAN JOIN US ON...

 
LOGIN :

Register | Disclaimer

   EN    FR    IT 

 









Legend :    VFR   Marginal VFR   IFR   Intensive IFR   Very Intensive IFR
Visi :
Ceiling :
>= 8 km
>= 3000ft
5 to 8 km
1000 to 3000 ft
1500m to 5 km
500 to 1000 ft
800 to 1500m
200 to 500 ft
< 800m
< 200 ft
Symbols :   Thunderstorms  Fog  Heavy snow  Heavy precipitations  Wind > 20 kt






- Airport Elevation : 160 ft
- IATA code : YYR


CYYR - Goose Bay

CURRENT METAR :
  • 040200Z 05006KT 15SM FEW120 FEW270 12/08 A2991 RMK AC1CI1 SLP131

EXPIRED METARs :
  • 040100Z 06005KT 15SM FEW060 FEW120 FEW270 14/08 A2991 RMK CU1AC2CI1 SLP129
  • 040000Z 07004KT 15SM FEW060 BKN110 BKN270 15/06 A2989 RMK CU1AC6CI1 SLP125

TAF TAF CYYR
Valid from the 04 at 00:00 until the 05 at 00:00 UTC


032330Z 0400/0424 06005KT P6SM SCT050 BKN110
TEMPO 0400/0405 BKN050 OVC110
FM040500 VRB03KT P6SM BKN050
TEMPO 0405/0411 P6SM -SHRA OVC050
FM041100 07005KT P6SM BKN025
TEMPO 0411/0414 P6SM -SHRA BKN020
FM041400 09005KT 5SM -SHRA BR BKN015 OVC025
FM041700 17008KT 6SM -SHRA BR FEW015 BKN040 OVC090
FM042200 05005KT 5SM -SHRA BR BKN020 OVC040 RMK NXT FCST BY 040600Z
CZQX FIR / North America



MET'MAP, your aeronautical weather chart ! - Copyright ORBIFLY December 2007 - Disclaimer

ORBIFLY MET'MAP TEAM :

Programming & Development : Alexandra Zaïnal
Concept & original design : Baudouin d'Aumeries
Assistance for programming : Marc-Olivier Méhu
Technical & hardware support : Manuel Goepfert

Contact : metmap@orbifly.com




SOURCES & CREDITS :

   NOAA